Time;durP1;ratioP1;P1;durP2;ratioP2;P2;SDS_P1;SDS_P2;PMS_P1;PMS_P2;Temp;Humidity;BMP_temperature;BMP_pressure;BME280_temperature;BME280_humidity;BME280_pressure;Samples;Min_cycle;Max_cycle;Signal;HPM_P1;HPM_P2
2023/03/04 00:01:43;;;;;;;;;;;;;;;5.02;82.72;102572.19;5048552;28;19912;-60
2023/03/04 00:04:09;;;;;;;;;;;;;;;5.01;82.84;102578.59;5048493;28;20637;-61
2023/03/04 00:06:34;;;;;;;;;;;;;;;5.02;82.53;102582.19;5047817;28;19939;-61
2023/03/04 00:08:59;;;;;;;;;;;;;;;5.03;82.51;102583.94;5047511;28;20011;-61
2023/03/04 00:11:24;;;;;;;;;;;;;;;5.03;82.52;102583.94;5046439;28;19924;-61
2023/03/04 00:13:49;;;;;;;;;;;;;;;5.03;82.94;102579.34;5045932;28;19931;-61
2023/03/04 00:16:15;;;;;;;;;;;;;;;5.07;82.56;102578.03;5047734;28;20287;-61
2023/03/04 00:18:40;;;;;;;;;;;;;;;5.04;82.96;102577.47;5047203;28;19920;-61
2023/03/04 00:21:05;;;;;;;;;;;;;;;5.13;82.23;102579.28;5047471;28;19999;-61
2023/03/04 00:23:30;;;;;;;;;;;;;;;5.03;83.07;102579.34;5046789;28;20282;-61
2023/03/04 00:25:56;;;;;;;;;;;;;;;5.03;82.79;102573.88;5046676;28;19926;-60
2023/03/04 00:28:21;;;;;;;;;;;;;;;5.08;82.33;102576.16;5046985;28;19951;-61
2023/03/04 00:30:46;;;;;;;;;;;;;;;5.06;82.79;102572.72;5048248;28;19924;-61
2023/03/04 00:33:11;;;;;;;;;;;;;;;5.06;82.66;102573.56;5048424;28;19975;-61
2023/03/04 00:35:36;;;;;;;;;;;;;;;5.06;83.12;102575.44;5046367;28;19921;-60
2023/03/04 00:38:02;;;;;;;;;;;;;;;5.06;82.83;102568.13;5046433;28;19917;-61
2023/03/04 00:40:27;;;;;;;;;;;;;;;5.06;82.77;102561.81;5047649;28;19924;-60
2023/03/04 00:42:52;;;;;;;;;;;;;;;5.06;83.70;102567.25;5045630;28;19917;-60
2023/03/04 00:45:17;;;;;;;;;;;;;;;5.05;83.34;102569.13;5046524;28;19916;-60
2023/03/04 00:47:42;;;;;;;;;;;;;;;5.05;83.13;102566.41;5047129;28;19917;-61
2023/03/04 00:50:08;;;;;;;;;;;;;;;5.06;83.04;102568.13;5047552;28;19920;-61
2023/03/04 00:52:33;;;;;;;;;;;;;;;5.06;82.66;102572.72;5045286;28;19924;-61
2023/03/04 00:54:58;;;;;;;;;;;;;;;5.05;83.03;102571.84;5048299;28;19916;-60
2023/03/04 00:57:24;;;;;;;;;;;;;;;5.04;82.88;102569.28;5045796;28;20011;-59
2023/03/04 00:59:49;;;;;;;;;;;;;;;5.04;83.02;102570.16;5047015;28;20295;-60
2023/03/04 01:02:14;;;;;;;;;;;;;;;5.04;82.98;102567.44;5046930;28;20512;-61
2023/03/04 01:04:40;;;;;;;;;;;;;;;5.06;82.85;102570.00;5047070;28;19924;-61
2023/03/04 01:07:06;;;;;;;;;;;;;;;5.06;83.09;102570.84;5047639;28;19913;-60
2023/03/04 01:09:31;;;;;;;;;;;;;;;5.06;83.32;102570.00;5048136;28;20003;-60
2023/03/04 01:11:56;;;;;;;;;;;;;;;5.07;82.91;102569.84;5046132;28;19987;-61
2023/03/04 01:14:21;;;;;;;;;;;;;;;5.08;82.89;102574.28;5045722;28;19962;-60
2023/03/04 01:16:47;;;;;;;;;;;;;;;5.06;82.70;102572.72;5028195;28;19944;-60
2023/03/04 01:19:12;;;;;;;;;;;;;;;5.04;83.25;102575.59;5027913;28;19952;-61
2023/03/04 01:21:37;;;;;;;;;;;;;;;5.04;83.21;102575.59;5039580;28;19921;-61
2023/03/04 01:24:03;;;;;;;;;;;;;;;5.04;83.15;102578.31;5046699;28;19979;-61
2023/03/04 01:26:28;;;;;;;;;;;;;;;5.04;83.21;102563.84;5035374;28;19956;-60
2023/03/04 01:28:53;;;;;;;;;;;;;;;5.03;83.18;102571.16;5035515;28;19917;-59
2023/03/04 01:31:18;;;;;;;;;;;;;;;5.01;84.20;102570.44;5047305;28;20578;-58
2023/03/04 01:33:43;;;;;;;;;;;;;;;5.02;84.03;102564.00;5046849;28;19921;-61
2023/03/04 01:36:09;;;;;;;;;;;;;;;5.02;83.60;102565.84;5029085;28;19916;-61
2023/03/04 01:38:34;;;;;;;;;;;;;;;5.03;83.48;102563.00;5046278;28;19966;-59
2023/03/04 01:40:59;;;;;;;;;;;;;;;5.03;83.35;102562.13;5046559;28;20293;-61
2023/03/04 01:43:26;;;;;;;;;;;;;;;5.04;83.64;102556.53;5045219;28;20379;-61
2023/03/04 01:45:52;;;;;;;;;;;;;;;5.00;84.42;102557.84;5046906;28;19955;-61
2023/03/04 01:48:19;;;;;;;;;;;;;;;5.04;83.48;102555.69;5047864;28;19956;-61
2023/03/04 01:50:44;;;;;;;;;;;;;;;5.01;84.21;102554.09;5046834;28;19917;-60
2023/03/04 01:53:16;;;;;;;;;;;;;;;4.98;84.15;102543.53;5045998;28;19931;-61
2023/03/04 01:55:41;;;;;;;;;;;;;;;4.98;84.24;102532.66;5046451;28;19916;-59
2023/03/04 01:58:08;;;;;;;;;;;;;;;4.96;83.58;102545.53;5046439;28;19916;-61
2023/03/04 02:00:34;;;;;;;;;;;;;;;5.01;83.37;102532.31;5046424;28;20015;-60
2023/03/04 02:03:07;;;;;;;;;;;;;;;4.97;84.08;102536.38;5046049;28;20013;-62
2023/03/04 02:05:34;;;;;;;;;;;;;;;5.00;83.78;102529.75;5039566;28;19916;-61
2023/03/04 02:08:00;;;;;;;;;;;;;;;4.98;83.48;102531.78;5046620;28;19924;-60
2023/03/04 02:10:25;;;;;;;;;;;;;;;4.98;83.63;102529.91;5047546;28;20464;-61
2023/03/04 02:12:51;;;;;;;;;;;;;;;4.98;84.04;102526.34;5047730;28;19928;-61
2023/03/04 02:15:16;;;;;;;;;;;;;;;4.98;84.13;102526.34;5050619;28;19920;-61
2023/03/04 02:17:41;;;;;;;;;;;;;;;4.97;84.05;102519.16;5049231;28;19924;-61
2023/03/04 02:20:14;;;;;;;;;;;;;;;4.95;84.29;102522.03;5050857;28;20009;-62
2023/03/04 02:22:43;;;;;;;;;;;;;;;4.95;84.38;102522.03;5048774;28;19921;-60
2023/03/04 02:25:12;;;;;;;;;;;;;;;4.94;84.19;102515.75;5049579;28;20384;-61
2023/03/04 02:27:37;;;;;;;;;;;;;;;4.95;83.98;102516.59;5048470;28;19955;-60
2023/03/04 02:30:02;;;;;;;;;;;;;;;4.97;83.97;102514.59;5049869;28;20410;-61
2023/03/04 02:32:27;;;;;;;;;;;;;;;4.97;84.21;102513.72;5048912;28;19916;-61
2023/03/04 02:34:53;;;;;;;;;;;;;;;4.97;84.42;102514.59;5032217;28;19916;-61
2023/03/04 02:37:19;;;;;;;;;;;;;;;4.99;83.92;102514.44;5045910;28;20579;-61
2023/03/04 02:39:45;;;;;;;;;;;;;;;5.00;84.40;102503.38;5093663;22;20034;-61
2023/03/04 02:42:11;;;;;;;;;;;;;;;4.96;84.43;102504.69;5046781;28;20349;-61
2023/03/04 02:44:37;;;;;;;;;;;;;;;4.95;84.87;102508.44;5048421;28;19968;-60
2023/03/04 02:47:03;;;;;;;;;;;;;;;4.95;84.23;102512.00;5030903;28;19917;-59
2023/03/04 02:49:30;;;;;;;;;;;;;;;4.97;84.56;102503.72;5046665;28;19917;-59
2023/03/04 02:52:00;;;;;;;;;;;;;;;4.95;84.54;102503.00;5048572;28;19948;-59
2023/03/04 02:54:26;;;;;;;;;;;;;;;4.95;84.60;102501.13;5049836;28;19939;-61
2023/03/04 02:56:52;;;;;;;;;;;;;;;4.98;84.58;102499.97;5048154;28;19921;-57
2023/03/04 02:59:18;;;;;;;;;;;;;;;4.94;85.02;102493.13;5045482;28;19974;-62
2023/03/04 03:01:44;;;;;;;;;;;;;;;4.95;84.72;102490.22;5031511;28;19916;-61
2023/03/04 03:04:09;;;;;;;;;;;;;;;4.94;85.04;102493.13;5037364;28;19947;-61
2023/03/04 03:06:34;;;;;;;;;;;;;;;4.95;84.94;102489.38;5029305;28;19913;-61
2023/03/04 03:09:00;;;;;;;;;;;;;;;4.94;85.81;102491.25;5029995;28;19913;-59
2023/03/04 03:11:25;;;;;;;;;;;;;;;4.92;84.78;102485.09;5035923;28;19951;-58
2023/03/04 03:13:50;;;;;;;;;;;;;;;4.93;85.34;102491.41;5046886;28;19921;-60
2023/03/04 03:16:15;;;;;;;;;;;;;;;4.94;84.85;102490.38;5045547;28;19925;-60
2023/03/04 03:18:40;;;;;;;;;;;;;;;4.91;85.10;102483.38;5029393;28;19913;-61
2023/03/04 03:21:06;;;;;;;;;;;;;;;4.93;84.80;102484.09;5033073;28;19916;-61
2023/03/04 03:23:31;;;;;;;;;;;;;;;4.95;85.48;102486.66;5035759;28;20337;-60
2023/03/04 03:25:57;;;;;;;;;;;;;;;4.94;85.15;102487.66;5035057;28;19912;-58
2023/03/04 03:28:22;;;;;;;;;;;;;;;4.93;85.21;102486.81;5046179;28;20291;-60
2023/03/04 03:30:47;;;;;;;;;;;;;;;4.93;85.23;102480.50;5030648;28;19917;-60
2023/03/04 03:33:12;;;;;;;;;;;;;;;4.94;85.21;102482.22;5048768;28;19928;-60
2023/03/04 03:35:37;;;;;;;;;;;;;;;4.91;85.95;102477.06;5048876;28;19913;-61
2023/03/04 03:38:02;;;;;;;;;;;;;;;4.88;85.50;102480.13;5048796;28;19946;-61
2023/03/04 03:40:28;;;;;;;;;;;;;;;4.89;85.29;102481.81;5048009;28;19966;-61
2023/03/04 03:42:53;;;;;;;;;;;;;;;4.88;85.54;102480.97;5046704;28;20441;-61
2023/03/04 03:45:18;;;;;;;;;;;;;;;4.87;85.38;102476.53;5048504;28;19920;-57
2023/03/04 03:47:43;;;;;;;;;;;;;;;4.88;85.40;102477.41;5047075;28;19931;-59
2023/03/04 03:50:08;;;;;;;;;;;;;;;4.88;85.42;102470.09;5048887;28;19955;-61
2023/03/04 03:52:34;;;;;;;;;;;;;;;4.88;85.46;102466.50;5042280;28;19920;-61
2023/03/04 03:55:00;;;;;;;;;;;;;;;4.85;85.50;102470.38;5045613;28;19923;-61
2023/03/04 03:57:26;;;;;;;;;;;;;;;4.90;85.43;102464.47;5047364;28;19913;-59
2023/03/04 03:59:51;;;;;;;;;;;;;;;4.84;85.74;102468.66;5048073;28;19924;-61
2023/03/04 04:02:16;;;;;;;;;;;;;;;4.85;85.30;102477.69;5046440;28;19920;-60
2023/03/04 04:04:41;;;;;;;;;;;;;;;4.85;85.30;102478.53;5048473;28;19916;-61
2023/03/04 04:07:06;;;;;;;;;;;;;;;4.86;85.48;102473.94;5047561;28;19956;-61
2023/03/04 04:09:32;;;;;;;;;;;;;;;4.87;85.38;102476.53;5048281;28;19924;-61
2023/03/04 04:11:57;;;;;;;;;;;;;;;4.87;85.85;102478.41;5043255;28;19967;-61
2023/03/04 04:14:22;;;;;;;;;;;;;;;4.86;85.45;102479.41;5028677;28;20431;-61
2023/03/04 04:16:47;;;;;;;;;;;;;;;4.86;85.27;102482.13;5028211;28;19920;-61
2023/03/04 04:19:21;;;;;;;;;;;;;;;4.85;85.37;102477.69;5038066;28;19924;-61
2023/03/04 04:21:47;;;;;;;;;;;;;;;4.86;85.46;102473.94;5045311;28;19916;-61
2023/03/04 04:24:12;;;;;;;;;;;;;;;4.84;85.35;102476.84;5031113;28;19917;-61
2023/03/04 04:26:37;;;;;;;;;;;;;;;4.86;85.48;102482.13;5041427;28;19921;-61
2023/03/04 04:29:02;;;;;;;;;;;;;;;4.84;85.93;102475.97;5026856;28;20331;-61
2023/03/04 04:31:28;;;;;;;;;;;;;;;4.84;85.56;102475.97;5037106;28;20277;-61
2023/03/04 04:33:53;;;;;;;;;;;;;;;4.83;85.55;102479.72;5046374;28;19970;-61
2023/03/04 04:36:18;;;;;;;;;;;;;;;4.83;85.46;102480.56;5028368;28;20347;-59
2023/03/04 04:38:44;;;;;;;;;;;;;;;4.84;85.61;102478.72;5030914;28;20386;-61
2023/03/04 04:41:20;;;;;;;;;;;;;;;4.84;85.47;102486.88;5041837;28;19963;-60
2023/03/04 04:43:45;;;;;;;;;;;;;;;4.84;85.43;102484.16;5030527;28;20274;-61
2023/03/04 04:46:11;;;;;;;;;;;;;;;4.82;85.64;102478.03;5042867;28;19923;-60
2023/03/04 04:48:36;;;;;;;;;;;;;;;4.82;85.47;102484.31;5043210;28;20266;-60
2023/03/04 04:51:01;;;;;;;;;;;;;;;4.84;85.49;102486.88;5030071;28;20401;-61
2023/03/04 04:53:26;;;;;;;;;;;;;;;4.84;85.90;102482.28;5041443;28;19931;-61
2023/03/04 04:55:51;;;;;;;;;;;;;;;4.83;85.78;102477.00;5035301;28;19920;-61
2023/03/04 04:58:17;;;;;;;;;;;;;;;4.84;85.42;102490.44;5042294;28;19924;-59
2023/03/04 05:00:42;;;;;;;;;;;;;;;4.83;85.93;102487.88;5047012;28;20270;-61
2023/03/04 05:03:07;;;;;;;;;;;;;;;4.81;85.74;102487.16;5045853;28;19928;-61
2023/03/04 05:05:32;;;;;;;;;;;;;;;4.79;85.85;102494.66;5046842;28;20009;-61
2023/03/04 05:07:57;;;;;;;;;;;;;;;4.78;86.04;102487.50;5030176;28;19968;-61
2023/03/04 05:10:23;;;;;;;;;;;;;;;4.76;86.40;102493.06;5031259;28;20295;-61
2023/03/04 05:12:48;;;;;;;;;;;;;;;4.77;86.19;102488.50;5044826;28;20015;-59
2023/03/04 05:15:14;;;;;;;;;;;;;;;4.73;86.34;102481.66;5048132;28;20295;-61
2023/03/04 05:17:39;;;;;;;;;;;;;;;4.74;86.70;102486.06;5047223;28;19920;-61
2023/03/04 05:20:06;;;;;;;;;;;;;;;4.74;86.26;102494.25;5047932;28;20023;-62
2023/03/04 05:22:31;;;;;;;;;;;;;;;4.73;86.41;102485.22;5045049;28;20809;-55
2023/03/04 05:24:56;;;;;;;;;;;;;;;4.73;86.13;102485.22;5046982;28;19924;-61
2023/03/04 05:27:21;;;;;;;;;;;;;;;4.74;86.06;102483.34;5026845;28;19971;-61
2023/03/04 05:29:47;;;;;;;;;;;;;;;4.74;86.38;102480.63;5030189;28;19917;-60
2023/03/04 05:32:12;;;;;;;;;;;;;;;4.74;86.31;102476.03;5039949;28;19913;-61
2023/03/04 05:34:37;;;;;;;;;;;;;;;4.75;86.01;102476.91;5043234;28;20379;-61
2023/03/04 05:37:02;;;;;;;;;;;;;;;4.75;85.93;102487.78;5046802;28;20015;-61
2023/03/04 05:39:27;;;;;;;;;;;;;;;4.73;86.10;102485.22;5032666;28;19923;-61
2023/03/04 05:41:52;;;;;;;;;;;;;;;4.74;86.65;102486.06;5040614;28;19990;-61
2023/03/04 05:44:18;;;;;;;;;;;;;;;4.75;86.57;102487.78;5047486;28;19917;-60
2023/03/04 05:46:43;;;;;;;;;;;;;;;4.76;86.28;102492.22;5049729;28;19947;-61
2023/03/04 05:49:08;;;;;;;;;;;;;;;4.75;86.43;102491.34;5049959;28;19928;-61
2023/03/04 05:51:33;;;;;;;;;;;;;;;4.78;86.44;102498.38;5049363;28;19940;-61
2023/03/04 05:53:58;;;;;;;;;;;;;;;4.74;86.67;102502.41;5042479;28;19964;-59
2023/03/04 05:56:23;;;;;;;;;;;;;;;4.77;86.74;102500.25;5031526;28;20125;-61
2023/03/04 05:58:49;;;;;;;;;;;;;;;4.73;86.65;102495.25;5029542;28;19917;-61
2023/03/04 06:01:14;;;;;;;;;;;;;;;4.70;87.30;102496.41;5032396;28;20024;-62
2023/03/04 06:03:42;;;;;;;;;;;;;;;4.68;86.80;102496.56;5029913;28;19931;-61
2023/03/04 06:06:07;;;;;;;;;;;;;;;4.70;86.36;102499.13;5038214;28;19920;-59
2023/03/04 06:08:32;;;;;;;;;;;;;;;4.69;86.78;102495.53;5048217;28;19923;-59
2023/03/04 06:10:58;;;;;;;;;;;;;;;4.70;87.09;102501.84;5043180;28;20434;-61
2023/03/04 06:13:23;;;;;;;;;;;;;;;4.69;86.81;102492.81;5032327;28;20363;-60
2023/03/04 06:15:52;;;;;;;;;;;;;;;4.68;86.77;102499.28;5048029;28;19913;-59
2023/03/04 06:18:17;;;;;;;;;;;;;;;4.69;86.95;102498.28;5038895;28;20023;-60
2023/03/04 06:20:44;;;;;;;;;;;;;;;4.69;86.83;102502.84;5036199;28;20004;-61
2023/03/04 06:23:09;;;;;;;;;;;;;;;4.69;86.94;102500.13;5047640;28;19916;-59
2023/03/04 06:25:34;;;;;;;;;;;;;;;4.67;87.15;102496.72;5040975;28;20369;-61
2023/03/04 06:27:59;;;;;;;;;;;;;;;4.67;87.29;102505.75;5044765;28;19999;-62
2023/03/04 06:30:24;;;;;;;;;;;;;;;4.68;87.81;102502.00;5040219;28;19916;-61
2023/03/04 06:32:50;;;;;;;;;;;;;;;4.71;87.29;102510.88;5049181;28;19913;-61
2023/03/04 06:35:15;;;;;;;;;;;;;;;4.68;88.07;102512.03;5046771;28;20008;-59
2023/03/04 06:37:41;;;;;;;;;;;;;;;4.68;88.35;102515.63;5049123;28;19919;-61
2023/03/04 06:40:07;;;;;;;;;;;;;;;4.67;87.76;102507.59;5049464;28;19921;-61
2023/03/04 06:42:32;;;;;;;;;;;;;;;4.68;88.12;102507.44;5045811;28;19978;-59
2023/03/04 06:44:57;;;;;;;;;;;;;;;4.68;89.21;102515.63;5047013;28;20384;-61
2023/03/04 06:47:23;;;;;;;;;;;;;;;4.66;88.22;102511.31;5036382;28;19916;-61
2023/03/04 06:49:48;;;;;;;;;;;;;;;4.67;89.34;102510.31;5048444;28;19917;-60
2023/03/04 06:52:13;;;;;;;;;;;;;;;4.67;88.09;102513.91;5049139;28;20336;-61
2023/03/04 06:54:38;;;;;;;;;;;;;;;4.67;88.11;102508.47;5048056;28;19913;-61
2023/03/04 06:57:04;;;;;;;;;;;;;;;4.67;88.62;102511.19;5045914;28;19995;-60
2023/03/04 06:59:29;;;;;;;;;;;;;;;4.64;89.04;102508.75;5040003;28;19954;-61
2023/03/04 07:01:54;;;;;;;;;;;;;;;4.67;88.74;102519.34;5046462;28;19916;-61
2023/03/04 07:04:21;;;;;;;;;;;;;;;4.66;89.11;102520.38;5041380;28;20003;-61
2023/03/04 07:06:46;;;;;;;;;;;;;;;4.68;89.05;102521.06;5038325;28;19924;-61
2023/03/04 07:09:11;;;;;;;;;;;;;;;4.70;88.45;102512.72;5046698;28;19917;-61
2023/03/04 07:11:37;;;;;;;;;;;;;;;4.68;89.07;102515.63;5043370;28;19990;-60
2023/03/04 07:14:02;;;;;;;;;;;;;;;4.71;89.28;102519.03;5031698;28;20004;-60
2023/03/04 07:16:27;;;;;;;;;;;;;;;4.72;89.04;102518.91;5045216;28;19920;-59
2023/03/04 07:18:52;;;;;;;;;;;;;;;4.73;89.44;102525.19;5037573;28;19917;-61
2023/03/04 07:21:18;;;;;;;;;;;;;;;4.74;89.18;102519.59;5029164;28;19952;-61
2023/03/04 07:23:43;;;;;;;;;;;;;;;4.77;89.67;102522.03;5046431;28;19927;-60
2023/03/04 07:26:09;;;;;;;;;;;;;;;4.78;89.25;102523.72;5045706;28;19920;-59
2023/03/04 07:28:34;;;;;;;;;;;;;;;4.79;90.11;102533.59;5029872;28;19962;-60
2023/03/04 07:31:10;;;;;;;;;;;;;;;4.81;90.67;102530.72;5035951;28;19971;-61
2023/03/04 07:33:35;;;;;;;;;;;;;;;4.83;89.34;102535.03;5041809;28;19924;-60
2023/03/04 07:36:00;;;;;;;;;;;;;;;4.85;90.07;102535.72;5047594;28;19923;-61
2023/03/04 07:38:25;;;;;;;;;;;;;;;4.88;89.66;102537.28;5047783;28;20380;-60
2023/03/04 07:40:54;;;;;;;;;;;;;;;4.90;90.75;102540.72;5041717;28;19952;-59
2023/03/04 07:43:20;;;;;;;;;;;;;;;4.89;89.78;102542.56;5028997;28;19921;-62
2023/03/04 07:45:45;;;;;;;;;;;;;;;4.91;90.20;102543.25;5029336;28;19919;-61
2023/03/04 07:48:10;;;;;;;;;;;;;;;4.94;90.10;102547.56;5044733;28;20337;-61
2023/03/04 07:50:35;;;;;;;;;;;;;;;4.94;90.55;102548.41;5048320;28;19920;-60
2023/03/04 07:53:00;;;;;;;;;;;;;;;5.00;90.71;102560.56;5047600;28;19919;-61
2023/03/04 07:55:26;;;;;;;;;;;;;;;5.04;90.54;102558.41;5048016;28;19939;-61
2023/03/04 07:57:51;;;;;;;;;;;;;;;5.10;91.11;102553.19;5044914;28;20416;-60
2023/03/04 08:00:17;;;;;;;;;;;;;;;5.19;89.99;102548.72;5040184;28;20019;-61
2023/03/04 08:02:42;;;;;;;;;;;;;;;5.30;90.04;102558.53;5026957;28;19913;-61
2023/03/04 08:05:08;;;;;;;;;;;;;;;5.39;90.88;102552.16;5027746;28;19924;-61
2023/03/04 08:07:33;;;;;;;;;;;;;;;5.44;90.20;102552.53;5032842;28;20004;-60
2023/03/04 08:09:58;;;;;;;;;;;;;;;5.51;88.84;102552.75;5046377;28;20329;-61
2023/03/04 08:12:24;;;;;;;;;;;;;;;5.53;89.93;102548.88;5044422;28;20018;-62
2023/03/04 08:14:49;;;;;;;;;;;;;;;5.60;88.77;102554.56;5027400;28;20276;-62
2023/03/04 08:17:15;;;;;;;;;;;;;;;5.70;89.42;102549.88;5044577;28;19982;-61
2023/03/04 08:19:40;;;;;;;;;;;;;;;5.89;89.84;102554.31;5047771;28;19913;-61
2023/03/04 08:22:05;;;;;;;;;;;;;;;6.39;89.52;102550.94;5046449;28;20294;-61
2023/03/04 08:24:31;;;;;;;;;;;;;;;6.60;86.56;102545.94;5046528;28;20408;-62
2023/03/04 08:26:56;;;;;;;;;;;;;;;6.57;87.56;102549.00;5045136;28;19924;-61
2023/03/04 08:29:22;;;;;;;;;;;;;;;6.53;87.56;102546.75;5046224;28;20011;-61
2023/03/04 08:31:48;;;;;;;;;;;;;;;6.70;87.05;102556.75;5046945;28;19920;-62
2023/03/04 08:34:13;;;;;;;;;;;;;;;6.70;86.09;102554.88;5046897;28;19935;-59
2023/03/04 08:36:39;;;;;;;;;;;;;;;6.69;86.54;102558.63;5044697;28;19920;-61
2023/03/04 08:39:05;;;;;;;;;;;;;;;6.92;86.44;102556.16;5045305;28;20003;-60
2023/03/04 08:41:30;;;;;;;;;;;;;;;7.12;85.50;102564.94;5044575;28;19983;-61
2023/03/04 08:43:55;;;;;;;;;;;;;;;7.32;84.66;102564.66;5045960;28;19916;-59
2023/03/04 08:46:20;;;;;;;;;;;;;;;7.42;84.70;102560.72;5046194;28;19909;-61
2023/03/04 08:48:45;;;;;;;;;;;;;;;7.35;84.65;102564.28;5045872;28;19924;-61
2023/03/04 08:51:12;;;;;;;;;;;;;;;7.34;85.76;102562.59;5046257;28;19978;-61
2023/03/04 08:53:37;;;;;;;;;;;;;;;7.60;84.99;102557.84;5040810;28;19920;-61
2023/03/04 08:56:03;;;;;;;;;;;;;;;7.83;84.12;102557.19;5045165;28;19919;-60
2023/03/04 08:58:28;;;;;;;;;;;;;;;7.89;83.12;102559.22;5045564;28;19915;-61
2023/03/04 09:00:53;;;;;;;;;;;;;;;7.79;83.64;102548.47;5045728;28;19913;-62
2023/03/04 09:03:19;;;;;;;;;;;;;;;7.65;83.95;102554.59;5045923;28;19912;-61
2023/03/04 09:05:45;;;;;;;;;;;;;;;7.50;84.40;102555.28;5045716;28;19920;-57
2023/03/04 09:08:10;;;;;;;;;;;;;;;7.49;84.58;102550.81;5045740;28;19913;-62
2023/03/04 09:10:35;;;;;;;;;;;;;;;7.83;83.84;102544.38;5027131;28;20201;-62
2023/03/04 09:13:00;;;;;;;;;;;;;;;7.94;83.78;102549.50;5044983;28;20275;-62
2023/03/04 09:15:26;;;;;;;;;;;;;;;8.05;83.64;102540.06;5046133;28;19916;-60
2023/03/04 09:17:51;;;;;;;;;;;;;;;8.52;82.09;102533.88;5045635;28;19948;-61
2023/03/04 09:20:17;;;;;;;;;;;;;;;8.69;81.75;102521.81;5046363;28;19912;-61
2023/03/04 09:22:42;;;;;;;;;;;;;;;8.80;81.69;102520.56;5049586;28;19967;-61
2023/03/04 09:25:07;;;;;;;;;;;;;;;9.13;80.15;102528.63;5049841;28;19912;-62
2023/03/04 09:27:32;;;;;;;;;;;;;;;9.71;78.10;102525.31;5048543;28;19912;-60
2023/03/04 09:29:58;;;;;;;;;;;;;;;9.83;77.62;102518.34;5049874;28;20355;-62
2023/03/04 09:32:23;;;;;;;;;;;;;;;9.64;76.73;102521.59;5049353;28;20257;-61
2023/03/04 09:34:48;;;;;;;;;;;;;;;9.48;78.01;102521.69;5049786;28;19917;-59
2023/03/04 09:37:13;;;;;;;;;;;;;;;9.18;78.56;102529.81;5050081;28;19917;-61
2023/03/04 09:39:38;;;;;;;;;;;;;;;8.88;79.88;102536.13;5049113;28;20315;-63
2023/03/04 09:42:06;;;;;;;;;;;;;;;8.72;81.42;102526.09;5048521;28;19920;-61
2023/03/04 09:44:39;;;;;;;;;;;;;;;8.74;81.15;102527.63;5049041;28;19913;-61
2023/03/04 09:47:10;;;;;;;;;;;;;;;8.77;81.23;102531.91;5049573;28;19913;-61
2023/03/04 09:49:37;;;;;;;;;;;;;;;8.72;80.53;102526.94;5049397;28;19920;-60
2023/03/04 09:52:26;;;;;;;;;;;;;;;8.54;81.72;102526.31;5049314;28;20283;-61
2023/03/04 09:54:58;;;;;;;;;;;;;;;8.22;80.74;102525.34;5048752;28;19940;-62
2023/03/04 09:57:27;;;;;;;;;;;;;;;7.97;82.84;102524.53;5048073;28;19912;-62
2023/03/04 10:00:11;;;;;;;;;;;;;;;7.85;83.74;102534.09;5048907;28;19916;-60
2023/03/04 10:02:59;;;;;;;;;;;;;;;7.73;84.29;102524.53;5048966;28;19913;-61
2023/03/04 10:05:25;;;;;;;;;;;;;;;7.55;84.18;102530.16;5043465;28;19913;-62
2023/03/04 10:07:55;;;;;;;;;;;;;;;7.61;84.51;102525.91;5048514;28;19969;-59
2023/03/04 10:10:24;;;;;;;;;;;;;;;7.72;84.41;102529.16;5043171;28;19924;-62
2023/03/04 10:12:49;;;;;;;;;;;;;;;8.01;83.83;102516.84;5028317;28;19964;-62
2023/03/04 10:15:26;;;;;;;;;;;;;;;8.49;83.12;102515.91;5029069;28;19918;-61
2023/03/04 10:17:55;;;;;;;;;;;;;;;9.13;80.36;102513.03;5028814;28;19924;-61
2023/03/04 10:20:22;;;;;;;;;;;;;;;9.33;79.65;102511.53;5029656;28;19913;-61
2023/03/04 10:22:48;;;;;;;;;;;;;;;9.25;79.28;102514.31;5030530;28;19913;-60
2023/03/04 10:25:15;;;;;;;;;;;;;;;9.01;80.46;102518.06;5030960;28;19921;-61
2023/03/04 10:27:41;;;;;;;;;;;;;;;8.78;81.25;102515.28;5029310;28;19956;-62
2023/03/04 10:30:39;;;;;;;;;;;;;;;8.51;82.21;102515.72;5030204;28;19998;-60
2023/03/04 10:33:24;;;;;;;;;;;;;;;8.14;82.67;102513.56;4996095;28;19912;-60
2023/03/04 10:35:54;;;;;;;;;;;;;;;7.85;83.48;102525.88;5030351;28;19913;-62
2023/03/04 10:38:20;;;;;;;;;;;;;;;7.65;84.47;102522.63;5030239;28;19909;-59
2023/03/04 10:40:45;;;;;;;;;;;;;;;7.59;85.03;102523.31;5029799;28;20011;-61
2023/03/04 10:43:15;;;;;;;;;;;;;;;7.57;85.34;102519.06;5030189;28;20001;-59
2023/03/04 10:45:41;;;;;;;;;;;;;;;7.59;85.71;102520.59;5029869;28;19913;-62
2023/03/04 10:48:16;;;;;;;;;;;;;;;7.57;85.77;102525.38;5030377;28;19917;-60
2023/03/04 10:50:41;;;;;;;;;;;;;;;7.57;85.69;102517.19;5029876;28;20015;-62
2023/03/04 10:53:21;;;;;;;;;;;;;;;7.67;85.92;102522.50;5048328;28;19987;-61
2023/03/04 10:55:47;;;;;;;;;;;;;;;7.93;85.22;102514.09;5049387;28;19912;-60
2023/03/04 10:58:14;;;;;;;;;;;;;;;8.31;84.50;102512.47;5049580;28;19958;-62
2023/03/04 11:00:40;;;;;;;;;;;;;;;8.43;83.78;102507.53;5049260;28;19912;-61
2023/03/04 11:03:24;;;;;;;;;;;;;;;8.54;83.88;102502.53;5049509;28;19913;-60
2023/03/04 11:05:49;;;;;;;;;;;;;;;8.49;83.81;102507.69;5049579;28;19913;-62
2023/03/04 11:08:20;;;;;;;;;;;;;;;8.42;84.18;102511.31;5049625;28;19913;-61
2023/03/04 11:10:45;;;;;;;;;;;;;;;8.25;84.64;102497.59;5048841;28;19913;-61
2023/03/04 11:13:10;;;;;;;;;;;;;;;8.23;84.88;102490.63;5048635;28;19920;-61
2023/03/04 11:15:54;;;;;;;;;;;;;;;9.12;85.12;102483.91;5048917;28;19939;-61
2023/03/04 11:18:25;;;;;;;;;;;;;;;11.58;81.14;102482.84;5048905;28;19913;-59
2023/03/04 11:20:51;;;;;;;;;;;;;;;12.43;74.39;102471.66;5049429;28;19920;-62
2023/03/04 11:23:20;;;;;;;;;;;;;;;12.32;74.47;102469.50;5049090;28;19920;-60
2023/03/04 11:25:48;;;;;;;;;;;;;;;12.07;73.66;102465.50;5047305;28;19917;-61
2023/03/04 11:28:32;;;;;;;;;;;;;;;12.39;73.01;102470.38;5048776;28;19908;-62
2023/03/04 11:30:59;;;;;;;;;;;;;;;12.76;72.93;102459.09;5049744;28;19912;-62
2023/03/04 11:33:35;;;;;;;;;;;;;;;12.50;69.76;102462.56;5049020;28;19913;-61
2023/03/04 11:36:10;;;;;;;;;;;;;;;11.70;70.39;102464.75;5049518;28;19912;-62
2023/03/04 11:38:43;;;;;;;;;;;;;;;10.79;76.16;102477.31;5048639;28;20403;-62
2023/03/04 11:41:27;;;;;;;;;;;;;;;9.99;78.71;102470.69;5048536;28;20323;-62
2023/03/04 11:43:52;;;;;;;;;;;;;;;9.33;80.98;102459.44;5048072;28;19912;-61
2023/03/04 11:46:35;;;;;;;;;;;;;;;9.21;82.33;102460.03;5049656;28;19920;-61
2023/03/04 11:49:17;;;;;;;;;;;;;;;8.85;83.12;102455.13;5048944;28;20011;-60
2023/03/04 11:51:57;;;;;;;;;;;;;;;8.90;83.87;102457.34;5048392;28;19912;-61
2023/03/04 11:54:29;;;;;;;;;;;;;;;9.14;84.08;102443.47;5048988;28;19912;-62
2023/03/04 11:56:59;;;;;;;;;;;;;;;9.64;81.81;102433.81;5045819;28;19916;-61
2023/03/04 11:59:44;;;;;;;;;;;;;;;9.89;81.23;102439.91;5049154;28;19966;-61
2023/03/04 12:02:09;;;;;;;;;;;;;;;9.60;81.35;102436.06;5045454;28;20462;-62
2023/03/04 12:04:51;;;;;;;;;;;;;;;9.33;82.39;102433.91;5044139;28;19999;-60
2023/03/04 12:07:34;;;;;;;;;;;;;;;9.04;84.05;102431.91;5042949;28;19917;-61
2023/03/04 12:09:59;;;;;;;;;;;;;;;8.88;84.31;102424.66;5029339;28;19988;-60
2023/03/04 12:12:45;;;;;;;;;;;;;;;8.73;84.96;102424.56;5028308;28;19940;-59
2023/03/04 12:15:30;;;;;;;;;;;;;;;8.72;84.99;102419.28;5029394;28;19913;-59
2023/03/04 12:18:01;;;;;;;;;;;;;;;8.62;85.82;102416.75;5017971;28;19935;-62
2023/03/04 12:20:39;;;;;;;;;;;;;;;8.53;85.68;102415.94;5040116;28;19927;-59
2023/03/04 12:23:14;;;;;;;;;;;;;;;8.47;85.83;102415.81;5046596;28;19924;-60
2023/03/04 12:25:49;;;;;;;;;;;;;;;8.45;86.12;102406.91;5042706;28;20302;-61
2023/03/04 12:28:30;;;;;;;;;;;;;;;8.57;86.05;102402.75;5046860;28;19920;-60
2023/03/04 12:31:10;;;;;;;;;;;;;;;8.82;85.20;102401.56;5047359;28;19961;-61
2023/03/04 12:33:38;;;;;;;;;;;;;;;9.01;84.76;102396.63;5043323;28;19917;-61
2023/03/04 12:36:06;;;;;;;;;;;;;;;9.17;84.33;102387.41;5045295;28;19917;-61
2023/03/04 12:38:37;;;;;;;;;;;;;;;9.20;83.96;102389.81;5037529;28;19964;-60
2023/03/04 12:41:21;;;;;;;;;;;;;;;9.12;84.01;102379.75;5040142;28;20346;-61
2023/03/04 12:43:58;;;;;;;;;;;;;;;8.95;84.02;102384.50;5044401;28;19956;-61
2023/03/04 12:46:34;;;;;;;;;;;;;;;8.71;84.56;102380.03;5048481;28;19919;-61